Time;durP1;ratioP1;P1;durP2;ratioP2;P2;SDS_P1;SDS_P2;PMS_P1;PMS_P2;Temp;Humidity;BMP_temperature;BMP_pressure;BME280_temperature;BME280_humidity;BME280_pressure;Samples;Min_cycle;Max_cycle;Signal;HPM_P1;HPM_P2
2023/01/03 00:01:39;;;;;;;17.35;12.85;;;;;;;6.18;100.00;100080.44;1721570;82;21552;-79
2023/01/03 00:04:06;;;;;;;15.20;11.97;;;;;;;6.17;100.00;100086.89;1716082;82;21011;-79
2023/01/03 00:06:36;;;;;;;19.32;13.43;;;;;;;6.12;100.00;100077.86;1724519;82;21130;-79
2023/01/03 00:09:08;;;;;;;15.90;12.23;;;;;;;6.01;100.00;100084.90;1716640;82;21043;-79
2023/01/03 00:14:24;;;;;;;17.32;12.73;;;;;;;5.94;100.00;100067.97;1705030;83;21030;-79
2023/01/03 00:16:56;;;;;;;17.48;12.35;;;;;;;5.94;100.00;100070.16;1712269;83;21605;-79
2023/01/03 00:19:24;;;;;;;17.67;13.58;;;;;;;5.91;100.00;100062.52;1702886;83;21007;-80
2023/01/03 00:21:51;;;;;;;17.77;12.58;;;;;;;5.84;100.00;100067.70;1714959;82;21032;-79
2023/01/03 00:24:17;;;;;;;16.42;12.45;;;;;;;5.80;100.00;100064.64;1711220;83;21506;-79
2023/01/03 00:26:45;;;;;;;17.62;12.53;;;;;;;5.81;100.00;100065.47;1695842;82;21067;-80
2023/01/03 00:29:12;;;;;;;17.80;12.75;;;;;;;5.81;100.00;100060.86;1707737;83;21053;-78
2023/01/03 00:31:38;;;;;;;17.17;13.45;;;;;;;5.82;100.00;100057.63;1711663;83;21055;-80
2023/01/03 00:34:07;;;;;;;16.30;13.45;;;;;;;5.77;100.00;100057.00;1702020;83;21507;-80
2023/01/03 00:36:34;;;;;;;18.60;13.55;;;;;;;5.70;100.00;100060.86;1708370;83;21113;-79
2023/01/03 00:39:01;;;;;;;18.82;13.22;;;;;;;5.65;100.00;100056.67;1719672;83;21608;-79
2023/01/03 00:41:29;;;;;;;18.32;13.00;;;;;;;5.66;100.00;100054.27;1709528;82;21120;-79
2023/01/03 00:43:56;;;;;;;17.23;13.18;;;;;;;5.66;100.00;100056.45;1709257;82;21098;-79
2023/01/03 00:46:23;;;;;;;14.63;12.43;;;;;;;5.67;100.00;100051.88;1724682;82;21612;-79
2023/01/03 00:48:49;;;;;;;16.75;12.95;;;;;;;5.66;100.00;100055.10;1724258;82;21050;-80
2023/01/03 00:51:23;;;;;;;16.25;12.53;;;;;;;5.62;100.00;100044.47;1685354;82;21035;-79
2023/01/03 00:53:52;;;;;;;16.75;12.47;;;;;;;5.58;100.00;100042.45;1702812;83;21066;-79
2023/01/03 00:56:22;;;;;;;14.10;11.60;;;;;;;5.60;100.00;100043.05;1707686;82;21580;-79
2023/01/03 00:58:49;;;;;;;15.85;11.60;;;;;;;5.59;100.00;100033.30;1718094;83;21035;-78
2023/01/03 01:01:25;;;;;;;16.97;12.75;;;;;;;5.57;100.00;100034.87;1731582;82;21636;-79
2023/01/03 01:03:58;;;;;;;16.93;12.95;;;;;;;5.55;100.00;100029.41;1732212;82;21589;-80
2023/01/03 01:06:29;;;;;;;19.40;12.58;;;;;;;5.49;100.00;100032.53;1699738;83;21122;-79
2023/01/03 01:08:58;;;;;;;17.30;13.30;;;;;;;5.46;100.00;100027.04;1706259;83;21446;-79
2023/01/03 01:11:25;;;;;;;17.00;12.25;;;;;;;5.49;100.00;100017.13;1722863;83;21067;-80
2023/01/03 01:13:52;;;;;;;16.10;11.63;;;;;;;5.50;100.00;100018.77;1726879;82;21177;-80
2023/01/03 01:16:22;;;;;;;16.80;12.90;;;;;;;5.50;100.00;100008.50;1717927;83;21147;-79
2023/01/03 01:18:49;;;;;;;16.32;13.05;;;;;;;5.44;100.00;99998.63;1718467;83;21114;-79
2023/01/03 01:21:18;;;;;;;17.17;12.65;;;;;;;5.36;100.00;99997.61;1728378;82;21095;-79
2023/01/03 01:23:45;;;;;;;17.60;12.90;;;;;;;5.31;100.00;99990.75;1713070;82;21021;-79
2023/01/03 01:26:16;;;;;;;16.55;12.58;;;;;;;5.31;100.00;99992.10;1721479;83;21071;-79
2023/01/03 01:28:42;;;;;;;16.97;12.88;;;;;;;5.33;100.00;99993.50;1725558;83;21025;-79
2023/01/03 01:31:12;;;;;;;17.98;13.00;;;;;;;5.34;100.00;99988.41;1715756;82;21070;-79
2023/01/03 01:33:39;;;;;;;19.70;13.18;;;;;;;5.31;100.00;99986.18;1701381;83;21092;-79
2023/01/03 01:36:18;;;;;;;17.20;12.20;;;;;;;5.27;100.00;99981.47;1708669;82;21578;-79
2023/01/03 01:38:46;;;;;;;17.20;12.55;;;;;;;5.31;100.00;99972.68;1708671;82;21141;-79
2023/01/03 01:44:36;;;;;;;19.90;12.15;;;;;;;5.31;100.00;99965.94;1698824;83;21534;-79
2023/01/03 01:46:43;;;;;;;15.60;12.82;;;;;;;5.22;100.00;99952.98;1694963;83;21132;-79
2023/01/03 01:49:12;;;;;;;;;;;;;;;5.11;100.00;99947.86;1708242;83;21553;-80
2023/01/03 01:51:39;;;;;;;16.95;12.90;;;;;;;5.09;100.00;99941.88;1710995;83;20133;-79
2023/01/03 01:54:05;;;;;;;;;;;;;;;5.06;100.00;99943.70;1699897;82;21044;-79
2023/01/03 01:56:37;;;;;;;17.90;12.43;;;;;;;5.10;100.00;99948.11;1714235;82;20137;-78
2023/01/03 01:59:04;;;;;;;19.25;13.13;;;;;;;5.08;100.00;99944.27;1722110;82;21107;-79
2023/01/03 02:01:31;;;;;;;17.55;12.68;;;;;;;5.06;100.00;99939.65;1715747;82;21485;-78
2023/01/03 02:04:03;;;;;;;16.65;12.20;;;;;;;5.08;100.00;99930.78;1661810;83;21058;-79
2023/01/03 02:06:30;;;;;;;17.60;11.68;;;;;;;5.13;100.00;99925.53;1729644;82;21173;-78
2023/01/03 02:08:59;;;;;;;16.00;10.93;;;;;;;5.18;100.00;99924.81;1735150;82;21157;-79
2023/01/03 02:11:37;;;;;;;16.62;11.78;;;;;;;5.18;100.00;99914.02;1719992;83;21039;-79
2023/01/03 02:14:28;;;;;;;17.87;12.88;;;;;;;5.18;100.00;99918.89;1728462;82;21083;-79
2023/01/03 02:17:09;;;;;;;17.10;11.88;;;;;;;5.16;100.00;99916.96;1732986;82;21105;-79
2023/01/03 02:19:59;;;;;;;17.25;12.40;;;;;;;5.19;100.00;99904.34;1717721;83;21153;-79
2023/01/03 02:22:47;;;;;;;17.60;12.55;;;;;;;5.24;100.00;99907.19;1712013;83;21043;-79
2023/01/03 02:25:40;;;;;;;15.83;12.35;;;;;;;5.29;100.00;99914.04;1696247;82;21105;-80
2023/01/03 02:28:30;;;;;;;21.68;12.93;;;;;;;5.30;100.00;99912.99;1691021;83;21146;-78
2023/01/03 02:31:29;;;;;;;17.45;13.05;;;;;;;5.26;100.00;99909.11;1729602;82;21110;-79
2023/01/03 02:34:32;;;;;;;18.65;12.70;;;;;;;5.24;100.00;99900.44;1728677;82;21123;-79
2023/01/03 02:37:32;;;;;;;18.02;12.33;;;;;;;5.24;100.00;99890.98;1733430;82;21031;-79
2023/01/03 02:40:27;;;;;;;17.15;12.30;;;;;;;5.21;100.00;99896.83;1715053;82;21102;-79
2023/01/03 02:43:08;;;;;;;19.30;12.70;;;;;;;5.14;100.00;99896.11;1718537;83;21007;-79
2023/01/03 02:46:04;;;;;;;18.30;12.03;;;;;;;5.10;100.00;99888.19;1720789;83;21095;-79
2023/01/03 02:48:54;;;;;;;22.07;12.37;;;;;;;5.12;100.00;99884.75;1588556;87;21091;-79
2023/01/03 02:51:32;;;;;;;18.10;12.47;;;;;;;5.13;100.00;99883.70;1670833;83;21090;-76
2023/01/03 02:53:58;;;;;;;19.75;13.98;;;;;;;5.14;100.00;99891.23;1727959;82;21421;-76
2023/01/03 02:56:30;;;;;;;18.15;13.43;;;;;;;5.12;100.00;99888.80;1721394;82;21149;-75
2023/01/03 02:59:00;;;;;;;18.60;13.03;;;;;;;5.13;100.00;99889.09;1720143;82;21065;-75
2023/01/03 03:01:28;;;;;;;20.23;13.15;;;;;;;5.17;100.00;99892.98;1727387;82;21051;-76
2023/01/03 03:03:55;;;;;;;16.95;13.25;;;;;;;5.22;100.00;99889.56;1703501;83;21110;-75
2023/01/03 03:06:33;;;;;;;20.88;14.78;;;;;;;5.22;100.00;99890.39;1733020;82;21121;-75
2023/01/03 03:09:00;;;;;;;16.77;14.00;;;;;;;5.19;100.00;99895.42;1726291;83;21565;-76
2023/01/03 03:13:52;;;;;;;20.15;13.38;;;;;;;5.25;100.00;99882.34;1801866;78;22866;-75
2023/01/03 03:25:51;;;;;;;17.32;13.55;;;;;;;5.27;100.00;99882.42;1625470;87;21264;-74
2023/01/03 03:28:34;;;;;;;18.55;13.32;;;;;;;5.31;100.00;99882.78;1627585;86;21134;-75
2023/01/03 03:31:16;;;;;;;20.12;13.15;;;;;;;5.29;100.00;99873.55;1677735;81;21088;-75
2023/01/03 03:33:51;;;;;;;18.50;13.03;;;;;;;5.30;100.00;99874.38;1729167;81;21913;-76
2023/01/03 03:36:41;;;;;;;18.27;12.63;;;;;;;5.33;100.00;99872.55;1736908;80;21057;-75
2023/01/03 03:44:59;;;;;;;17.92;12.88;;;;;;;5.35;100.00;99871.25;1700225;81;21043;-75
2023/01/03 03:47:29;;;;;;;16.87;12.23;;;;;;;5.36;100.00;99873.43;1725452;82;21459;-75
2023/01/03 03:50:06;;;;;;;18.02;13.53;;;;;;;5.37;100.00;99869.69;1731495;81;21057;-75
2023/01/03 03:52:32;;;;;;;16.90;12.78;;;;;;;5.35;100.00;99869.91;1730114;81;21060;-75
2023/01/03 03:55:07;;;;;;;18.10;13.03;;;;;;;5.31;100.00;99859.31;1728648;81;21024;-75
2023/01/03 03:57:52;;;;;;;19.82;13.05;;;;;;;5.30;100.00;99866.28;1730622;81;20979;-75
2023/01/03 04:00:23;;;;;;;19.42;13.00;;;;;;;5.32;100.00;99872.25;1731337;81;21029;-75
2023/01/03 04:02:50;;;;;;;17.67;12.80;;;;;;;5.32;100.00;99864.98;1730025;81;20983;-75
2023/01/03 04:05:19;;;;;;;16.52;12.60;;;;;;;5.29;100.00;99856.00;1738710;80;21536;-75
2023/01/03 04:07:46;;;;;;;17.37;12.30;;;;;;;5.29;100.00;99860.58;1708788;83;21116;-75
2023/01/03 04:10:12;;;;;;;15.85;11.93;;;;;;;5.31;100.00;99853.91;1700785;83;21974;-76
2023/01/03 04:12:39;;;;;;;16.35;11.97;;;;;;;5.35;100.00;99846.95;1721751;82;21166;-75
2023/01/03 04:15:07;;;;;;;17.52;12.18;;;;;;;5.38;100.00;99851.92;1720870;82;21158;-75
2023/01/03 04:17:34;;;;;;;17.98;12.40;;;;;;;5.39;100.00;99851.36;1680188;84;21337;-75
2023/01/03 04:20:01;;;;;;;17.92;12.37;;;;;;;5.40;100.00;99858.41;1677954;83;21150;-75
2023/01/03 04:22:28;;;;;;;;;;;;;;;5.36;100.00;99858.06;1684868;84;21033;-75
2023/01/03 04:24:54;;;;;;;15.45;11.78;;;;;;;5.37;100.00;99853.48;1668679;84;20165;-75
2023/01/03 04:27:21;;;;;;;17.30;13.03;;;;;;;5.30;100.00;99848.21;1671249;84;21078;-75
2023/01/03 04:29:50;;;;;;;17.52;12.25;;;;;;;5.31;100.00;99849.86;1669504;86;22242;-75
2023/01/03 04:32:16;;;;;;;15.95;11.90;;;;;;;5.30;100.00;99844.16;1687382;85;21683;-75
2023/01/03 04:34:42;;;;;;;16.87;11.93;;;;;;;5.30;100.00;99842.81;1729486;81;21486;-75
2023/01/03 04:37:09;;;;;;;16.75;11.97;;;;;;;5.27;100.00;99846.50;1715037;82;21062;-74
2023/01/03 04:39:36;;;;;;;20.23;12.98;;;;;;;5.20;100.00;99845.28;1710987;82;20995;-74
2023/01/03 04:44:00;;;;;;;16.35;12.47;;;;;;;5.16;100.00;99838.70;1675833;85;21047;-75
2023/01/03 04:44:31;;;;;;;15.70;11.90;;;;;;;5.18;100.00;99833.05;1666007;85;21651;-75
2023/01/03 04:46:58;;;;;;;17.15;11.50;;;;;;;5.18;100.00;99837.10;1717787;82;21106;-75
2023/01/03 04:49:24;;;;;;;16.20;12.28;;;;;;;5.17;100.00;99832.78;1733100;82;21599;-75
2023/01/03 04:51:52;;;;;;;21.55;11.80;;;;;;;5.17;100.00;99843.58;1706103;83;21178;-75
2023/01/03 04:54:18;;;;;;;15.60;12.53;;;;;;;5.08;100.00;99838.21;1714225;82;21450;-75
2023/01/03 04:56:44;;;;;;;17.77;12.30;;;;;;;5.08;100.00;99837.69;1710699;82;21129;-74
2023/01/03 04:59:12;;;;;;;17.62;11.95;;;;;;;5.15;100.00;99829.48;1690041;84;21050;-75
2023/01/03 05:01:50;;;;;;;17.77;11.80;;;;;;;5.17;100.00;99840.87;1711027;82;21091;-74
2023/01/03 05:04:08;;;;;;;17.05;11.80;;;;;;;5.15;100.00;99841.09;1710626;82;21555;-75
2023/01/03 05:06:34;;;;;;;16.25;11.70;;;;;;;5.12;100.00;99843.44;1720875;82;21133;-75
2023/01/03 05:09:01;;;;;;;17.17;12.45;;;;;;;5.03;100.00;99842.42;1707732;83;21064;-75
2023/01/03 05:11:27;;;;;;;;;;;;;;;4.98;100.00;99832.05;1717144;82;21116;-75
2023/01/03 05:13:54;;;;;;;17.77;12.07;;;;;;;4.95;100.00;99834.70;1723872;81;20158;-75
2023/01/03 05:16:20;;;;;;;18.17;12.50;;;;;;;4.87;100.00;99828.81;1723121;81;21048;-75
2023/01/03 05:18:50;;;;;;;17.80;12.18;;;;;;;4.84;100.00;99830.11;1718413;83;21062;-75
2023/01/03 05:26:49;;;;;;;18.35;12.25;;;;;;;4.62;100.00;99802.55;1722159;81;21061;-76
2023/01/03 05:29:18;;;;;;;17.75;12.18;;;;;;;4.62;100.00;99807.95;1723854;83;21000;-76
2023/01/03 05:31:45;;;;;;;17.52;11.75;;;;;;;4.64;100.00;99816.09;1725193;81;21096;-76
2023/01/03 05:34:12;;;;;;;;;;;;;;;4.67;100.00;99809.44;1720941;83;21110;-76
2023/01/03 05:36:39;;;;;;;18.35;12.75;;;;;;;4.70;100.00;99810.32;1723028;81;20200;-77
2023/01/03 05:39:07;;;;;;;15.43;11.40;;;;;;;4.63;100.00;99806.91;1704421;82;21084;-75
2023/01/03 05:44:19;;;;;;;14.68;11.40;;;;;;;4.77;100.00;99811.86;1720246;81;21483;-75
2023/01/03 05:46:47;;;;;;;16.32;12.63;;;;;;;4.84;100.00;99812.57;1723577;81;21420;-75
2023/01/03 05:49:14;;;;;;;14.60;11.88;;;;;;;4.85;100.00;99806.66;1719281;82;21082;-76
2023/01/03 05:51:40;;;;;;;15.88;11.25;;;;;;;4.86;100.00;99808.27;1723110;82;22353;-76
2023/01/03 05:54:07;;;;;;;;;;;;;;;4.90;100.00;99801.36;1727027;81;21041;-76
2023/01/03 05:56:34;;;;;;;15.90;11.22;;;;;;;4.96;100.00;99812.04;1721778;82;20324;-75
2023/01/03 05:59:00;;;;;;;14.60;11.08;;;;;;;4.95;100.00;99808.25;1740773;81;21014;-76
2023/01/03 06:01:27;;;;;;;;;;;;;;;4.95;100.00;99815.81;1723425;81;21181;-76
2023/01/03 06:03:54;;;;;;;18.02;11.60;;;;;;;4.93;100.00;99818.43;1702951;82;20130;-75
2023/01/03 06:06:20;;;;;;;15.83;11.70;;;;;;;4.90;100.00;99818.37;1725080;81;21539;-78
2023/01/03 06:08:47;;;;;;;;;;;;;;;4.96;100.00;99816.61;1724597;81;21124;-75
2023/01/03 06:11:16;;;;;;;17.05;11.25;;;;;;;4.98;100.00;99821.27;1734640;81;20161;-76
2023/01/03 06:13:43;;;;;;;16.82;11.90;;;;;;;4.89;100.00;99828.86;1710109;82;21031;-76
2023/01/03 06:19:00;;;;;;;14.00;10.58;;;;;;;4.97;100.00;99813.69;1658356;84;21050;-76
2023/01/03 06:21:26;;;;;;;14.58;10.68;;;;;;;5.05;100.00;99813.88;1714641;82;21704;-76
2023/01/03 06:23:53;;;;;;;13.22;10.38;;;;;;;5.12;100.00;99813.23;1712281;82;21569;-75
2023/01/03 06:26:21;;;;;;;13.22;10.45;;;;;;;5.17;100.00;99814.72;1711429;82;21535;-76
2023/01/03 06:28:48;;;;;;;14.83;10.13;;;;;;;5.21;100.00;99821.81;1709738;84;21145;-76
2023/01/03 06:31:14;;;;;;;;;;;;;;;5.25;100.00;99808.94;1678460;85;21079;-76
2023/01/03 06:33:42;;;;;;;;;;;;;;;5.28;100.00;99816.56;1635196;85;20163;-76
2023/01/03 06:36:11;;;;;;;14.03;10.32;;;;;;;5.24;100.00;99799.75;1652169;85;20147;-75
2023/01/03 06:38:38;;;;;;;13.98;10.48;;;;;;;5.26;100.00;99834.06;1710874;82;21525;-76
2023/01/03 06:41:04;;;;;;;15.43;10.13;;;;;;;5.32;100.00;99837.98;1724088;82;21034;-76
2023/01/03 06:43:32;;;;;;;15.05;11.53;;;;;;;5.37;100.00;99830.02;1739304;82;21106;-76
2023/01/03 06:54:31;;;;;;;13.78;10.82;;;;;;;5.44;100.00;99837.47;1645523;85;21157;-76
2023/01/03 06:56:57;;;;;;;17.17;11.70;;;;;;;5.51;100.00;99838.69;1702980;82;21064;-76
2023/01/03 06:59:25;;;;;;;14.98;10.90;;;;;;;5.51;100.00;99845.44;1714373;82;21110;-76
2023/01/03 07:01:53;;;;;;;16.00;10.80;;;;;;;5.56;100.00;99840.69;1713578;82;21538;-76
2023/01/03 07:04:20;;;;;;;12.30;9.75;;;;;;;5.60;100.00;99837.81;1714825;82;22295;-77
2023/01/03 07:06:46;;;;;;;14.13;10.25;;;;;;;5.63;100.00;99841.39;1689405;82;21931;-76
2023/01/03 07:09:14;;;;;;;13.30;10.35;;;;;;;5.65;100.00;99850.88;1682077;84;21102;-76
2023/01/03 07:11:41;;;;;;;14.38;10.40;;;;;;;5.71;100.00;99858.55;1717130;80;21035;-76
2023/01/03 07:14:09;;;;;;;15.58;11.30;;;;;;;5.70;100.00;99860.45;1714889;82;22232;-76
2023/01/03 07:16:42;;;;;;;13.22;10.23;;;;;;;5.72;100.00;99862.38;1708058;81;21457;-76
2023/01/03 07:19:16;;;;;;;13.90;10.05;;;;;;;5.78;100.00;99871.41;1709721;82;21074;-78
2023/01/03 07:21:44;;;;;;;12.35;9.95;;;;;;;5.81;100.00;99875.01;1721189;82;21618;-76
2023/01/03 07:24:14;;;;;;;13.58;10.45;;;;;;;5.86;100.00;99882.71;1718749;82;21102;-75
2023/01/03 07:26:40;;;;;;;16.10;10.18;;;;;;;5.90;100.00;99880.36;1694658;82;21576;-76
2023/01/03 07:29:08;;;;;;;14.33;11.05;;;;;;;5.95;100.00;99878.57;1681379;83;21051;-77
2023/01/03 07:31:40;;;;;;;14.47;11.75;;;;;;;5.96;100.00;99878.05;1697867;83;21121;-76
2023/01/03 07:34:06;;;;;;;14.18;10.80;;;;;;;5.98;100.00;99892.16;1672179;82;21035;-77
2023/01/03 07:36:34;;;;;;;14.50;10.70;;;;;;;6.05;100.00;99890.14;1712443;82;21090;-77
2023/01/03 07:39:00;;;;;;;;;;;;;;;6.13;100.00;99889.75;1713011;82;21006;-77
2023/01/03 07:43:35;;;;;;;15.08;10.48;;;;;;;6.20;100.00;99889.08;1703974;83;20135;-76
2023/01/03 07:43:55;;;;;;;14.55;11.38;;;;;;;6.21;100.00;99888.03;1715179;83;21066;-77
2023/01/03 07:46:22;;;;;;;;;;;;;;;6.30;100.00;99893.90;1715861;82;21554;-76
2023/01/03 07:48:54;;;;;;;16.05;11.28;;;;;;;6.33;100.00;99889.36;1718617;82;20206;-78
2023/01/03 07:51:21;;;;;;;14.43;10.72;;;;;;;6.28;100.00;99890.59;1712382;82;21108;-77
2023/01/03 07:53:52;;;;;;;10.70;9.38;;;;;;;6.37;100.00;99885.11;1711500;82;21080;-76
2023/01/03 07:56:19;;;;;;;13.20;10.23;;;;;;;6.46;100.00;99879.08;1720780;80;21560;-77
2023/01/03 07:58:48;;;;;;;13.53;10.13;;;;;;;6.55;100.00;99877.34;1715409;82;21529;-78
2023/01/03 08:01:17;;;;;;;13.62;11.05;;;;;;;6.61;100.00;99886.66;1707699;82;21078;-78
2023/01/03 08:03:44;;;;;;;12.55;9.80;;;;;;;6.64;100.00;99889.40;1714256;83;21074;-76
2023/01/03 08:06:19;;;;;;;15.20;10.48;;;;;;;6.67;100.00;99890.27;1708913;82;21130;-78
2023/01/03 08:13:16;;;;;;;12.60;10.63;;;;;;;6.70;100.00;99895.19;1714072;82;21070;-76
2023/01/03 08:14:01;;;;;;;13.62;9.95;;;;;;;6.71;100.00;99887.37;1711854;82;21052;-79
2023/01/03 08:16:28;;;;;;;13.88;10.43;;;;;;;6.73;100.00;99887.41;1719985;81;21062;-77
2023/01/03 08:18:55;;;;;;;15.23;10.85;;;;;;;6.78;100.00;99890.73;1718802;82;21029;-77
2023/01/03 08:21:21;;;;;;;;;;;;;;;6.84;100.00;99892.47;1727405;81;21103;-77
2023/01/03 08:23:48;;;;;;;16.05;11.48;;;;;;;6.87;100.00;99896.06;1729206;81;20169;-77
2023/01/03 08:26:15;;;;;;;15.10;11.95;;;;;;;6.88;100.00;99901.22;1722640;81;21071;-75
2023/01/03 08:28:43;;;;;;;14.87;11.55;;;;;;;7.03;100.00;99890.36;1727338;81;21825;-79
2023/01/03 08:31:18;;;;;;;14.30;11.73;;;;;;;7.17;100.00;99897.10;1724103;81;21066;-77
2023/01/03 08:34:03;;;;;;;15.28;11.68;;;;;;;7.31;100.00;99899.77;1722059;81;21659;-77
2023/01/03 08:36:41;;;;;;;16.42;10.93;;;;;;;7.44;100.00;99894.84;1719308;81;21118;-77
2023/01/03 08:39:14;;;;;;;14.55;11.25;;;;;;;7.55;100.00;99902.59;1721679;81;21058;-77
2023/01/03 08:41:59;;;;;;;13.60;10.78;;;;;;;7.63;100.00;99901.34;1722929;82;21068;-76
2023/01/03 08:44:26;;;;;;;14.70;10.98;;;;;;;7.74;100.00;99902.61;1721076;81;21022;-77
2023/01/03 08:46:54;;;;;;;13.98;10.78;;;;;;;7.86;100.00;99906.58;1717878;81;21057;-77
2023/01/03 08:49:21;;;;;;;14.00;11.30;;;;;;;7.95;100.00;99907.25;1710385;81;21693;-77
2023/01/03 08:51:47;;;;;;;;;;;;;;;8.05;100.00;99910.63;1736188;81;21067;-76
2023/01/03 08:54:14;;;;;;;14.93;11.35;;;;;;;8.11;100.00;99900.68;1724755;81;20154;-77
2023/01/03 08:56:40;;;;;;;;;;;;;;;8.09;100.00;99888.72;1721803;81;21605;-77
2023/01/03 08:59:07;;;;;;;14.63;11.57;;;;;;;8.12;100.00;99881.43;1722783;81;20446;-77
2023/01/03 09:01:33;;;;;;;18.25;12.40;;;;;;;8.15;100.00;99886.34;1715795;81;21069;-76
2023/01/03 09:04:00;;;;;;;16.10;11.50;;;;;;;8.27;100.00;99895.19;1721822;81;21111;-78
2023/01/03 09:06:27;;;;;;;14.50;11.97;;;;;;;8.36;100.00;99899.11;1722602;81;21082;-78
2023/01/03 09:08:54;;;;;;;17.70;12.80;;;;;;;8.41;100.00;99899.72;1731728;81;21061;-78
2023/01/03 09:11:22;;;;;;;14.98;11.83;;;;;;;8.49;100.00;99892.49;1706616;82;21151;-77
2023/01/03 09:13:49;;;;;;;15.30;11.40;;;;;;;8.60;100.00;99882.57;1708769;82;21502;-77
2023/01/03 09:16:15;;;;;;;16.25;12.05;;;;;;;8.69;100.00;99881.02;1728603;81;21467;-78
2023/01/03 09:18:42;;;;;;;16.95;11.90;;;;;;;8.77;100.00;99892.25;1725424;81;21212;-78
2023/01/03 09:21:08;;;;;;;;;;;;;;;8.78;100.00;99887.12;1726450;81;21548;-77
2023/01/03 09:23:36;;;;;;;13.50;10.85;;;;;;;8.82;100.00;99877.92;1728537;81;20553;-78
2023/01/03 09:26:02;;;;;;;15.15;10.68;;;;;;;8.84;100.00;99877.11;1718307;81;21075;-78
2023/01/03 09:28:29;;;;;;;15.38;10.60;;;;;;;8.93;100.00;99877.73;1723730;81;21051;-77
2023/01/03 09:30:56;;;;;;;15.75;11.12;;;;;;;9.00;100.00;99870.20;1726373;81;21564;-79
2023/01/03 09:33:24;;;;;;;14.58;10.82;;;;;;;9.04;100.00;99871.04;1723823;82;22180;-79
2023/01/03 09:35:53;;;;;;;13.15;10.08;;;;;;;9.13;100.00;99866.25;1725894;81;21018;-78
2023/01/03 09:38:21;;;;;;;14.58;10.50;;;;;;;9.26;100.00;99868.52;1732460;81;20970;-79
2023/01/03 09:40:51;;;;;;;15.53;11.25;;;;;;;9.35;100.00;99876.46;1724921;82;21047;-79
2023/01/03 09:43:21;;;;;;;15.03;9.90;;;;;;;9.41;100.00;99866.47;1705467;83;21074;-79
2023/01/03 09:45:55;;;;;;;13.95;10.05;;;;;;;9.47;100.00;99866.77;1728521;81;21035;-80
2023/01/03 09:48:32;;;;;;;16.10;10.78;;;;;;;9.53;100.00;99861.64;1721364;81;21043;-78
2023/01/03 09:50:59;;;;;;;;;;;;;;;9.60;100.00;99858.72;1727799;81;21031;-80
2023/01/03 10:05:23;;;;;;;13.58;10.40;;;;;;;9.77;100.00;99858.83;1723777;81;21107;-81
2023/01/03 10:08:07;;;;;;;14.15;10.15;;;;;;;9.86;100.00;99861.84;1726319;81;21061;-78
2023/01/03 10:11:00;;;;;;;13.62;10.80;;;;;;;9.93;100.00;99866.51;1706499;81;21042;-79
2023/01/03 10:13:44;;;;;;;15.15;11.43;;;;;;;9.97;100.00;99861.64;1733386;82;20991;-77
2023/01/03 10:16:40;;;;;;;15.48;10.90;;;;;;;10.01;100.00;99856.49;1711748;81;21022;-78
2023/01/03 10:19:30;;;;;;;15.58;11.08;;;;;;;10.08;100.00;99858.97;1726173;81;20979;-79
2023/01/03 10:22:11;;;;;;;16.32;11.63;;;;;;;10.16;100.00;99857.14;1721579;81;21015;-77
2023/01/03 10:25:05;;;;;;;14.40;10.93;;;;;;;10.18;100.00;99861.22;1728119;81;21081;-77
2023/01/03 10:27:35;;;;;;;15.10;10.60;;;;;;;10.16;100.00;99862.04;1727982;81;21582;-78
2023/01/03 10:30:05;;;;;;;14.15;11.00;;;;;;;10.21;100.00;99870.73;1725555;81;21070;-79
2023/01/03 10:32:55;;;;;;;12.80;9.65;;;;;;;10.25;100.00;99859.06;1725851;81;21418;-78
2023/01/03 10:35:33;;;;;;;15.68;10.38;;;;;;;10.31;100.00;99864.80;1687592;83;21379;-79
2023/01/03 10:38:00;;;;;;;12.98;9.63;;;;;;;10.30;100.00;99865.91;1675606;85;21385;-79
2023/01/03 10:40:43;;;;;;;;;;;;;;;10.33;100.00;99871.34;1666358;84;21095;-78
2023/01/03 10:43:29;;;;;;;12.03;8.70;;;;;;;10.40;100.00;99857.77;1666910;84;20585;-79
2023/01/03 10:46:02;;;;;;;15.23;10.13;;;;;;;10.31;100.00;99868.05;1656193;85;21074;-80
2023/01/03 10:48:41;;;;;;;13.75;9.40;;;;;;;10.25;100.00;99875.39;1666603;85;21051;-79
2023/01/03 10:51:33;;;;;;;15.00;9.30;;;;;;;10.26;100.00;99856.63;1690078;83;21077;-80
2023/01/03 10:54:02;;;;;;;13.15;9.80;;;;;;;10.24;100.00;99861.50;1696523;83;21078;-78
2023/01/03 10:56:29;;;;;;;13.95;9.55;;;;;;;10.15;100.00;99851.41;1688194;83;21111;-77
2023/01/03 10:59:25;;;;;;;12.23;9.83;;;;;;;10.14;100.00;99860.11;1688116;84;21731;-84
2023/01/03 11:02:15;;;;;;;13.32;9.38;;;;;;;10.23;100.00;99861.79;1665200;85;21051;-82
2023/01/03 11:04:42;;;;;;;14.33;8.75;;;;;;;10.23;100.00;99863.97;1671644;84;21732;-80
2023/01/03 11:07:12;;;;;;;14.65;10.00;;;;;;;10.26;100.00;99865.33;1663491;84;21529;-81
2023/01/03 11:09:53;;;;;;;13.13;9.83;;;;;;;10.32;100.00;99867.80;1668123;85;21106;-80
2023/01/03 11:12:35;;;;;;;13.45;9.08;;;;;;;10.33;100.00;99855.84;1661960;84;21946;-79
2023/01/03 11:15:16;;;;;;;13.75;9.85;;;;;;;10.27;100.00;99858.81;1679080;84;21607;-77
2023/01/03 11:18:04;;;;;;;14.28;9.13;;;;;;;10.28;100.00;99853.63;1683460;83;21539;-81
2023/01/03 11:20:55;;;;;;;;;;;;;;;10.33;100.00;99846.31;1681677;84;21110;-77
2023/01/03 11:23:54;;;;;;;13.20;9.20;;;;;;;10.33;100.00;99865.91;1687068;83;20135;-79
2023/01/03 11:26:50;;;;;;;12.93;9.15;;;;;;;10.30;100.00;99855.55;1686180;83;22111;-81
2023/01/03 11:29:46;;;;;;;13.85;9.70;;;;;;;10.38;100.00;99870.80;1692745;84;21011;-79
2023/01/03 11:32:41;;;;;;;13.08;9.40;;;;;;;10.45;100.00;99880.11;1680111;83;21016;-77
2023/01/03 11:35:47;;;;;;;13.45;9.30;;;;;;;10.48;100.00;99873.59;1645676;84;21087;-81
2023/01/03 11:38:28;;;;;;;16.87;10.20;;;;;;;10.58;100.00;99871.42;1663219;84;21054;-79
2023/01/03 11:41:32;;;;;;;13.90;9.70;;;;;;;10.67;100.00;99873.06;1692627;83;21094;-79
2023/01/03 11:44:20;;;;;;;14.68;9.03;;;;;;;10.69;100.00;99877.72;1657780;84;21070;-79
2023/01/03 11:46:59;;;;;;;13.05;8.95;;;;;;;10.63;100.00;99885.61;1665726;84;21077;-79
2023/01/03 11:49:43;;;;;;;11.15;8.35;;;;;;;10.66;100.00;99889.97;1679765;83;21134;-80
2023/01/03 11:52:18;;;;;;;13.70;8.80;;;;;;;10.70;100.00;99888.31;1688026;83;21541;-81
2023/01/03 11:55:42;;;;;;;11.85;9.08;;;;;;;10.65;100.00;99884.78;1686771;83;21058;-78
2023/01/03 11:58:55;;;;;;;14.83;8.50;;;;;;;10.58;100.00;99876.88;1687946;83;21010;-78
2023/01/03 12:01:49;;;;;;;12.03;8.35;;;;;;;10.58;100.00;99885.58;1689714;83;21660;-82
2023/01/03 12:04:36;;;;;;;13.35;9.43;;;;;;;10.55;100.00;99871.97;1685408;84;21078;-81
2023/01/03 12:07:20;;;;;;;25.62;17.07;;;;;;;10.51;100.00;99860.52;1683887;83;21083;-77
2023/01/03 12:10:14;;;;;;;35.60;24.75;;;;;;;10.57;100.00;99865.70;1669326;82;21086;-77
2023/01/03 12:13:24;;;;;;;38.98;25.88;;;;;;;10.62;100.00;99868.98;1692139;83;21091;-77
2023/01/03 12:15:57;;;;;;;28.27;17.27;;;;;;;10.62;100.00;99861.64;1673466;84;21119;-80
2023/01/03 12:18:38;;;;;;;24.63;16.02;;;;;;;10.67;100.00;99871.16;1705730;82;21053;-76
2023/01/03 12:21:17;;;;;;;18.92;11.40;;;;;;;10.74;100.00;99865.45;1708355;82;21031;-77
2023/01/03 12:23:49;;;;;;;20.20;13.18;;;;;;;10.74;100.00;99864.91;1709410;82;21019;-76
2023/01/03 12:26:16;;;;;;;20.27;13.38;;;;;;;10.70;100.00;99859.73;1712811;82;21062;-76
2023/01/03 12:29:06;;;;;;;16.12;11.50;;;;;;;10.74;100.00;99859.47;1708341;82;21052;-74
2023/01/03 12:31:37;;;;;;;23.47;15.80;;;;;;;10.81;100.00;99863.29;1713239;82;21579;-76
2023/01/03 12:34:28;;;;;;;20.72;12.45;;;;;;;10.78;100.00;99862.47;1693027;83;21393;-73
2023/01/03 12:37:18;;;;;;;18.60;11.90;;;;;;;10.74;100.00;99864.91;1731793;82;21054;-75
2023/01/03 12:40:04;;;;;;;14.45;9.60;;;;;;;10.72;100.00;99860.30;1683822;83;21074;-77
2023/01/03 12:42:52;;;;;;;18.02;11.38;;;;;;;10.76;100.00;99864.13;1688825;84;20975;-76
2023/01/03 12:45:45;;;;;;;17.90;10.20;;;;;;;10.74;100.00;99863.55;1721283;82;21032;-79
2023/01/03 12:48:34;;;;;;;15.25;10.53;;;;;;;10.69;100.00;99875.81;1716780;82;21064;-76